FDX606 WIII-WSSS
Flight info
| Callsign | FDX606 |
|---|---|
| Flight time | 1h 19m |
| Altitude | 34000 |
| Route | DOLTA A585 PLB G579 REPOV |
| Aircraft | B77L/H-SDE1E2E3FGHIJ2J3J4J5M1RWXY/LB1D1 |
Departure
| Time | 2026-05-07 08:27 |
|---|---|
| Airport | Soekarno-Hatta International Airport (WIII) |
Arrival
| Time | 2026-05-07 09:46 |
|---|---|
| Airport | Singapore Changi Airport (WSSS) |
| Time | Latitude | Longitude | Altitude | Speed | Heading |
|---|---|---|---|---|---|
| 2026-05-07 08:00 | -6.12933 | 106.66239 | 48 ft | 0 kts | 338° |
| 2026-05-07 08:19 | -6.12920 | 106.66232 | 48 ft | 5 kts | 314° |
| 2026-05-07 08:19 | -6.12923 | 106.66201 | 48 ft | 5 kts | 233° |
| 2026-05-07 08:19 | -6.12986 | 106.66174 | 48 ft | 14 kts | 181° |
| 2026-05-07 08:20 | -6.13076 | 106.66195 | 48 ft | 13 kts | 159° |
| 2026-05-07 08:20 | -6.13158 | 106.66227 | 48 ft | 12 kts | 159° |
| 2026-05-07 08:20 | -6.13234 | 106.66257 | 48 ft | 11 kts | 159° |
| 2026-05-07 08:20 | -6.13305 | 106.66257 | 48 ft | 11 kts | 227° |
| 2026-05-07 08:21 | -6.13335 | 106.66191 | 48 ft | 10 kts | 246° |
| 2026-05-07 08:21 | -6.13364 | 106.66123 | 48 ft | 12 kts | 247° |
| 2026-05-07 08:21 | -6.13399 | 106.66035 | 48 ft | 15 kts | 248° |
| 2026-05-07 08:21 | -6.13442 | 106.65927 | 48 ft | 18 kts | 248° |
| 2026-05-07 08:22 | -6.13494 | 106.65797 | 48 ft | 24 kts | 248° |
| 2026-05-07 08:22 | -6.13558 | 106.65638 | 48 ft | 24 kts | 248° |
| 2026-05-07 08:22 | -6.13616 | 106.65491 | 48 ft | 22 kts | 248° |
| 2026-05-07 08:22 | -6.13670 | 106.65358 | 48 ft | 20 kts | 248° |
| 2026-05-07 08:23 | -6.13723 | 106.65224 | 48 ft | 21 kts | 248° |
| 2026-05-07 08:23 | -6.13776 | 106.65092 | 48 ft | 20 kts | 248° |
| 2026-05-07 08:23 | -6.13829 | 106.64958 | 48 ft | 20 kts | 248° |
| 2026-05-07 08:23 | -6.13880 | 106.64831 | 48 ft | 19 kts | 248° |
| 2026-05-07 08:24 | -6.13929 | 106.64710 | 48 ft | 18 kts | 248° |
| 2026-05-07 08:24 | -6.13978 | 106.64585 | 48 ft | 21 kts | 248° |
| 2026-05-07 08:24 | -6.14029 | 106.64457 | 48 ft | 19 kts | 248° |
| 2026-05-07 08:24 | -6.14069 | 106.64354 | 48 ft | 12 kts | 249° |
| 2026-05-07 08:25 | -6.14095 | 106.64290 | 48 ft | 8 kts | 246° |
| 2026-05-07 08:25 | -6.14140 | 106.64284 | 48 ft | 8 kts | 138° |
| 2026-05-07 08:25 | -6.14179 | 106.64321 | 48 ft | 7 kts | 136° |
| 2026-05-07 08:25 | -6.14216 | 106.64355 | 48 ft | 7 kts | 136° |
| 2026-05-07 08:26 | -6.14218 | 106.64445 | 48 ft | 13 kts | 71° |
| 2026-05-07 08:26 | -6.14123 | 106.64686 | 48 ft | 78 kts | 68° |
| 2026-05-07 08:26 | -6.13793 | 106.65514 | 52 ft | 174 kts | 68° |
| 2026-05-07 08:27 | -6.13296 | 106.66763 | 824 ft | 199 kts | 68° |
| 2026-05-07 08:27 | -6.12800 | 106.68037 | 2359 ft | 194 kts | 69° |
| 2026-05-07 08:27 | -6.12315 | 106.69372 | 3214 ft | 212 kts | 71° |
| 2026-05-07 08:27 | -6.11813 | 106.70785 | 4222 ft | 217 kts | 72° |
| 2026-05-07 08:28 | -6.11426 | 106.72235 | 5347 ft | 212 kts | 81° |
| 2026-05-07 08:28 | -6.11416 | 106.73651 | 6545 ft | 204 kts | 98° |
| 2026-05-07 08:28 | -6.11990 | 106.74962 | 7343 ft | 209 kts | 124° |
| 2026-05-07 08:28 | -6.13136 | 106.75841 | 8258 ft | 210 kts | 147° |
| 2026-05-07 08:29 | -6.14550 | 106.76303 | 8995 ft | 218 kts | 165° |
| 2026-05-07 08:29 | -6.16077 | 106.76280 | 9719 ft | 225 kts | 185° |
| 2026-05-07 08:29 | -6.17560 | 106.75728 | 10406 ft | 235 kts | 205° |
| 2026-05-07 08:29 | -6.18958 | 106.74700 | 10698 ft | 264 kts | 218° |
| 2026-05-07 08:30 | -6.20131 | 106.73208 | 11207 ft | 279 kts | 240° |
| 2026-05-07 08:30 | -6.20749 | 106.71358 | 12071 ft | 280 kts | 258° |
| 2026-05-07 08:30 | -6.20818 | 106.69390 | 12887 ft | 284 kts | 271° |
| 2026-05-07 08:30 | -6.20838 | 106.67373 | 13580 ft | 295 kts | 265° |
| 2026-05-07 08:31 | -6.21085 | 106.65319 | 14260 ft | 305 kts | 261° |
| 2026-05-07 08:31 | -6.21490 | 106.63162 | 15005 ft | 314 kts | 258° |
| 2026-05-07 08:31 | -6.21963 | 106.61027 | 15821 ft | 320 kts | 257° |
| 2026-05-07 08:31 | -6.22439 | 106.58828 | 16677 ft | 324 kts | 258° |
| 2026-05-07 08:32 | -6.22901 | 106.56604 | 17507 ft | 328 kts | 258° |
| 2026-05-07 08:32 | -6.23190 | 106.54321 | 18257 ft | 333 kts | 272° |
| 2026-05-07 08:32 | -6.22676 | 106.52050 | 18969 ft | 339 kts | 293° |
| 2026-05-07 08:32 | -6.21462 | 106.49968 | 19396 ft | 354 kts | 307° |
| 2026-05-07 08:33 | -6.19809 | 106.48046 | 19717 ft | 373 kts | 313° |
| 2026-05-07 08:33 | -6.17958 | 106.46115 | 19996 ft | 393 kts | 315° |
| 2026-05-07 08:33 | -6.15978 | 106.44119 | 20245 ft | 413 kts | 315° |
| 2026-05-07 08:33 | -6.13935 | 106.41994 | 20477 ft | 431 kts | 314° |
| 2026-05-07 08:34 | -6.11856 | 106.39767 | 20793 ft | 442 kts | 317° |
| 2026-05-07 08:34 | -6.09435 | 106.37826 | 21199 ft | 450 kts | 328° |
| 2026-05-07 08:34 | -6.06671 | 106.36331 | 21747 ft | 454 kts | 337° |
| 2026-05-07 08:34 | -6.03731 | 106.35157 | 22382 ft | 456 kts | 340° |
| 2026-05-07 08:35 | -6.00726 | 106.34126 | 23073 ft | 456 kts | 344° |
| 2026-05-07 08:35 | -5.97660 | 106.33261 | 23606 ft | 461 kts | 347° |
| 2026-05-07 08:35 | -5.94522 | 106.32494 | 23790 ft | 467 kts | 347° |
| 2026-05-07 08:35 | -5.91347 | 106.31698 | 23743 ft | 473 kts | 347° |
| 2026-05-07 08:36 | -5.88180 | 106.30859 | 23759 ft | 468 kts | 347° |
| 2026-05-07 08:36 | -5.85036 | 106.30040 | 23740 ft | 467 kts | 347° |
| 2026-05-07 08:36 | -5.81883 | 106.29210 | 23765 ft | 471 kts | 347° |
| 2026-05-07 08:36 | -5.78688 | 106.28357 | 23742 ft | 475 kts | 346° |
| 2026-05-07 08:37 | -5.75545 | 106.27409 | 23776 ft | 473 kts | 342° |
| 2026-05-07 08:37 | -5.72474 | 106.26203 | 23740 ft | 473 kts | 338° |
| 2026-05-07 08:37 | -5.69507 | 106.24800 | 23760 ft | 472 kts | 334° |
| 2026-05-07 08:37 | -5.66624 | 106.23214 | 23775 ft | 473 kts | 332° |
| 2026-05-07 08:38 | -5.63819 | 106.21555 | 23768 ft | 474 kts | 330° |
| 2026-05-07 08:38 | -5.61001 | 106.19867 | 23752 ft | 471 kts | 331° |
| 2026-05-07 08:38 | -5.58172 | 106.18215 | 23746 ft | 468 kts | 331° |
| 2026-05-07 08:38 | -5.55297 | 106.16576 | 23794 ft | 472 kts | 332° |
| 2026-05-07 08:39 | -5.52410 | 106.14948 | 23768 ft | 478 kts | 332° |
| 2026-05-07 08:39 | -5.49525 | 106.13335 | 23761 ft | 472 kts | 332° |
| 2026-05-07 08:39 | -5.46690 | 106.11745 | 23801 ft | 474 kts | 332° |
| 2026-05-07 08:39 | -5.43779 | 106.10105 | 23776 ft | 475 kts | 332° |
| 2026-05-07 08:40 | -5.40945 | 106.08501 | 23787 ft | 473 kts | 332° |
| 2026-05-07 08:40 | -5.38080 | 106.06882 | 23776 ft | 472 kts | 332° |
| 2026-05-07 08:40 | -5.35216 | 106.05265 | 23776 ft | 472 kts | 332° |
| 2026-05-07 08:40 | -5.32352 | 106.03648 | 23783 ft | 472 kts | 332° |
| 2026-05-07 08:41 | -5.29488 | 106.02031 | 23788 ft | 472 kts | 332° |
| 2026-05-07 08:41 | -5.26625 | 106.00415 | 23774 ft | 472 kts | 332° |
| 2026-05-07 08:41 | -5.23770 | 105.98790 | 23737 ft | 473 kts | 332° |
| 2026-05-07 08:41 | -5.20893 | 105.97182 | 23737 ft | 478 kts | 332° |
| 2026-05-07 08:42 | -5.18006 | 105.95557 | 23794 ft | 476 kts | 332° |
| 2026-05-07 08:42 | -5.15116 | 105.93934 | 23759 ft | 476 kts | 332° |
| 2026-05-07 08:42 | -5.12240 | 105.92308 | 23773 ft | 474 kts | 331° |
| 2026-05-07 08:42 | -5.09371 | 105.90664 | 24026 ft | 476 kts | 332° |
| 2026-05-07 08:43 | -5.06485 | 105.89022 | 24641 ft | 476 kts | 332° |
| 2026-05-07 08:43 | -5.03609 | 105.87365 | 25247 ft | 476 kts | 331° |
| 2026-05-07 08:43 | -5.00736 | 105.85721 | 25930 ft | 476 kts | 331° |
| 2026-05-07 08:43 | -4.97834 | 105.84084 | 26336 ft | 482 kts | 332° |
| 2026-05-07 08:44 | -4.94891 | 105.82421 | 26722 ft | 488 kts | 332° |
| 2026-05-07 08:44 | -4.91935 | 105.80741 | 27297 ft | 488 kts | 331° |
| 2026-05-07 08:44 | -4.88976 | 105.79065 | 27787 ft | 491 kts | 331° |
| 2026-05-07 08:44 | -4.85987 | 105.77364 | 28195 ft | 496 kts | 331° |
| 2026-05-07 08:45 | -4.82970 | 105.75630 | 28460 ft | 504 kts | 331° |
| 2026-05-07 08:45 | -4.79896 | 105.73872 | 28643 ft | 512 kts | 331° |
| 2026-05-07 08:45 | -4.76792 | 105.72101 | 29019 ft | 514 kts | 331° |
| 2026-05-07 08:45 | -4.73677 | 105.70324 | 29432 ft | 516 kts | 331° |
| 2026-05-07 08:46 | -4.70551 | 105.68543 | 29817 ft | 518 kts | 331° |
| 2026-05-07 08:46 | -4.67419 | 105.66759 | 30324 ft | 517 kts | 331° |
| 2026-05-07 08:46 | -4.64302 | 105.64984 | 30972 ft | 513 kts | 331° |
| 2026-05-07 08:46 | -4.61204 | 105.63220 | 31556 ft | 511 kts | 331° |
| 2026-05-07 08:47 | -4.58117 | 105.61462 | 32144 ft | 509 kts | 331° |
| 2026-05-07 08:47 | -4.55041 | 105.59711 | 32735 ft | 507 kts | 331° |
| 2026-05-07 08:47 | -4.51980 | 105.57968 | 33326 ft | 505 kts | 331° |
| 2026-05-07 08:47 | -4.48923 | 105.56229 | 33736 ft | 505 kts | 331° |
| 2026-05-07 08:48 | -4.42817 | 105.52754 | 33789 ft | 504 kts | 331° |
| 2026-05-07 08:48 | -4.36727 | 105.49289 | 33787 ft | 503 kts | 331° |
| 2026-05-07 08:49 | -4.30644 | 105.45828 | 33788 ft | 503 kts | 331° |
| 2026-05-07 08:49 | -4.24591 | 105.42388 | 33799 ft | 504 kts | 331° |
| 2026-05-07 08:50 | -4.18498 | 105.38920 | 33786 ft | 503 kts | 331° |
| 2026-05-07 08:50 | -4.12382 | 105.35454 | 33688 ft | 508 kts | 331° |
| 2026-05-07 08:51 | -4.09333 | 105.33718 | 33848 ft | 501 kts | 330° |
| 2026-05-07 08:51 | -4.06300 | 105.31988 | 33753 ft | 501 kts | 331° |
| 2026-05-07 08:51 | -4.00253 | 105.28529 | 33781 ft | 503 kts | 330° |
| 2026-05-07 08:52 | -3.94131 | 105.25070 | 33788 ft | 505 kts | 331° |
| 2026-05-07 08:52 | -3.88030 | 105.21600 | 33810 ft | 504 kts | 331° |
| 2026-05-07 08:53 | -3.81875 | 105.18167 | 33806 ft | 504 kts | 331° |
| 2026-05-07 08:53 | -3.75767 | 105.14725 | 33788 ft | 503 kts | 331° |
| 2026-05-07 08:54 | -3.70694 | 105.11868 | 33787 ft | 504 kts | 331° |
| 2026-05-07 08:54 | -3.64575 | 105.08424 | 33787 ft | 504 kts | 331° |
| 2026-05-07 08:55 | -3.58457 | 105.04992 | 33747 ft | 506 kts | 331° |
| 2026-05-07 08:55 | -3.52324 | 105.01548 | 33792 ft | 507 kts | 331° |
| 2026-05-07 08:56 | -3.46202 | 104.98089 | 33810 ft | 503 kts | 331° |
| 2026-05-07 08:56 | -3.40119 | 104.94662 | 33757 ft | 504 kts | 331° |
| 2026-05-07 08:57 | -3.34003 | 104.91220 | 33788 ft | 505 kts | 331° |
| 2026-05-07 08:57 | -3.27881 | 104.87777 | 33787 ft | 504 kts | 331° |
| 2026-05-07 08:58 | -3.21764 | 104.84337 | 33787 ft | 504 kts | 331° |
| 2026-05-07 08:58 | -3.15647 | 104.80897 | 33787 ft | 504 kts | 331° |
| 2026-05-07 08:59 | -3.09530 | 104.77457 | 33787 ft | 504 kts | 331° |
| 2026-05-07 08:59 | -3.03412 | 104.74017 | 33787 ft | 504 kts | 331° |
| 2026-05-07 09:00 | -2.97300 | 104.70583 | 33787 ft | 504 kts | 331° |
| 2026-05-07 09:00 | -2.91212 | 104.67189 | 33786 ft | 504 kts | 333° |
| 2026-05-07 09:01 | -2.84668 | 104.64721 | 33787 ft | 504 kts | 346° |
| 2026-05-07 09:01 | -2.77818 | 104.63256 | 33787 ft | 503 kts | 350° |
| 2026-05-07 09:02 | -2.70924 | 104.62041 | 33787 ft | 503 kts | 350° |
| 2026-05-07 09:02 | -2.64047 | 104.60781 | 33787 ft | 503 kts | 350° |
| 2026-05-07 09:03 | -2.57167 | 104.59495 | 33787 ft | 503 kts | 350° |
| 2026-05-07 09:03 | -2.50288 | 104.58200 | 33787 ft | 503 kts | 350° |
| 2026-05-07 09:04 | -2.43416 | 104.56904 | 33787 ft | 502 kts | 349° |
| 2026-05-07 09:04 | -2.36547 | 104.55608 | 33787 ft | 502 kts | 349° |
| 2026-05-07 09:05 | -2.29677 | 104.54311 | 33787 ft | 502 kts | 349° |
| 2026-05-07 09:05 | -2.22815 | 104.53017 | 33787 ft | 502 kts | 349° |
| 2026-05-07 09:06 | -2.15945 | 104.51721 | 33788 ft | 502 kts | 349° |
| 2026-05-07 09:06 | -2.09076 | 104.50425 | 33788 ft | 502 kts | 349° |
| 2026-05-07 09:07 | -2.02207 | 104.49129 | 33788 ft | 502 kts | 349° |
| 2026-05-07 09:07 | -1.95383 | 104.47842 | 33788 ft | 502 kts | 349° |
| 2026-05-07 09:08 | -1.88514 | 104.46546 | 33788 ft | 502 kts | 349° |
| 2026-05-07 09:08 | -1.81653 | 104.45253 | 33788 ft | 502 kts | 349° |
| 2026-05-07 09:09 | -1.74786 | 104.43956 | 33787 ft | 502 kts | 350° |
| 2026-05-07 09:09 | -1.67917 | 104.42662 | 33787 ft | 502 kts | 349° |
| 2026-05-07 09:10 | -1.61041 | 104.41365 | 33783 ft | 503 kts | 349° |
| 2026-05-07 09:10 | -1.54177 | 104.40059 | 33797 ft | 498 kts | 349° |
| 2026-05-07 09:11 | -1.47354 | 104.38780 | 33767 ft | 501 kts | 350° |
| 2026-05-07 09:11 | -1.40495 | 104.37491 | 33771 ft | 502 kts | 350° |
| 2026-05-07 09:12 | -1.33646 | 104.36203 | 33878 ft | 499 kts | 350° |
| 2026-05-07 09:12 | -1.30205 | 104.35555 | 33738 ft | 505 kts | 350° |
| 2026-05-07 09:12 | -1.26756 | 104.34903 | 33838 ft | 508 kts | 350° |
| 2026-05-07 09:13 | -1.23286 | 104.34250 | 33737 ft | 503 kts | 350° |
| 2026-05-07 09:13 | -1.19860 | 104.33617 | 33777 ft | 500 kts | 350° |
| 2026-05-07 09:13 | -1.13035 | 104.32314 | 33785 ft | 501 kts | 350° |
| 2026-05-07 09:14 | -1.06170 | 104.31034 | 33765 ft | 504 kts | 350° |
| 2026-05-07 09:14 | -0.99319 | 104.29738 | 33780 ft | 498 kts | 350° |
| 2026-05-07 09:15 | -0.92498 | 104.28461 | 33813 ft | 503 kts | 350° |
| 2026-05-07 09:15 | -0.85592 | 104.27146 | 33816 ft | 503 kts | 350° |
| 2026-05-07 09:16 | -0.78722 | 104.25850 | 33782 ft | 502 kts | 350° |
| 2026-05-07 09:16 | -0.71870 | 104.24559 | 33779 ft | 501 kts | 350° |
| 2026-05-07 09:17 | -0.65056 | 104.23277 | 33766 ft | 502 kts | 350° |
| 2026-05-07 09:17 | -0.58196 | 104.21983 | 33683 ft | 502 kts | 350° |
| 2026-05-07 09:18 | -0.54764 | 104.21329 | 33110 ft | 502 kts | 350° |
| 2026-05-07 09:18 | -0.51347 | 104.20649 | 32436 ft | 500 kts | 349° |
| 2026-05-07 09:18 | -0.47939 | 104.19967 | 31750 ft | 499 kts | 350° |
| 2026-05-07 09:18 | -0.44536 | 104.19284 | 31017 ft | 499 kts | 350° |
| 2026-05-07 09:19 | -0.41132 | 104.18620 | 30314 ft | 498 kts | 350° |
| 2026-05-07 09:19 | -0.37753 | 104.17947 | 29780 ft | 493 kts | 351° |
| 2026-05-07 09:19 | -0.34408 | 104.17283 | 29301 ft | 486 kts | 350° |
| 2026-05-07 09:19 | -0.31098 | 104.16628 | 28673 ft | 484 kts | 351° |
| 2026-05-07 09:20 | -0.27817 | 104.15965 | 28040 ft | 481 kts | 350° |
| 2026-05-07 09:20 | -0.24546 | 104.15303 | 27460 ft | 477 kts | 350° |
| 2026-05-07 09:20 | -0.21306 | 104.14661 | 26877 ft | 474 kts | 350° |
| 2026-05-07 09:20 | -0.18091 | 104.14005 | 26310 ft | 469 kts | 350° |
| 2026-05-07 09:21 | -0.14892 | 104.13406 | 25716 ft | 467 kts | 351° |
| 2026-05-07 09:21 | -0.11720 | 104.12774 | 25157 ft | 462 kts | 350° |
| 2026-05-07 09:21 | -0.08594 | 104.12145 | 24797 ft | 453 kts | 350° |
| 2026-05-07 09:21 | -0.05520 | 104.11529 | 24277 ft | 449 kts | 351° |
| 2026-05-07 09:22 | -0.02461 | 104.10919 | 23692 ft | 447 kts | 351° |
| 2026-05-07 09:22 | 0.00583 | 104.10313 | 23114 ft | 445 kts | 351° |
| 2026-05-07 09:22 | 0.03611 | 104.09711 | 22540 ft | 442 kts | 351° |
| 2026-05-07 09:22 | 0.06621 | 104.09112 | 21973 ft | 440 kts | 351° |
| 2026-05-07 09:23 | 0.08605 | 104.08718 | 21684 ft | 436 kts | 350° |
| 2026-05-07 09:23 | 0.12497 | 104.07944 | 21582 ft | 417 kts | 350° |
| 2026-05-07 09:23 | 0.15302 | 104.07386 | 21477 ft | 405 kts | 351° |
| 2026-05-07 09:23 | 0.18026 | 104.06844 | 21375 ft | 393 kts | 351° |
| 2026-05-07 09:24 | 0.20673 | 104.06317 | 21275 ft | 382 kts | 351° |
| 2026-05-07 09:24 | 0.23246 | 104.05803 | 21172 ft | 372 kts | 351° |
| 2026-05-07 09:24 | 0.25742 | 104.05309 | 21067 ft | 362 kts | 351° |
| 2026-05-07 09:24 | 0.28182 | 104.04826 | 20946 ft | 353 kts | 351° |
| 2026-05-07 09:25 | 0.30572 | 104.04352 | 20659 ft | 349 kts | 351° |
| 2026-05-07 09:25 | 0.32939 | 104.03883 | 20371 ft | 345 kts | 351° |
| 2026-05-07 09:25 | 0.35285 | 104.03419 | 20099 ft | 344 kts | 351° |
| 2026-05-07 09:25 | 0.37624 | 104.02949 | 19800 ft | 342 kts | 351° |
| 2026-05-07 09:26 | 0.39958 | 104.02495 | 19590 ft | 343 kts | 351° |
| 2026-05-07 09:26 | 0.42310 | 104.02034 | 19318 ft | 346 kts | 350° |
| 2026-05-07 09:26 | 0.44679 | 104.01567 | 19157 ft | 347 kts | 351° |
| 2026-05-07 09:26 | 0.47061 | 104.01079 | 18742 ft | 351 kts | 350° |
| 2026-05-07 09:27 | 0.49429 | 104.00613 | 18334 ft | 352 kts | 351° |
| 2026-05-07 09:27 | 0.51812 | 104.00132 | 18213 ft | 347 kts | 351° |
| 2026-05-07 09:27 | 0.56417 | 103.99227 | 17681 ft | 329 kts | 351° |
| 2026-05-07 09:28 | 0.58666 | 103.98782 | 17405 ft | 330 kts | 351° |
| 2026-05-07 09:28 | 0.60922 | 103.98335 | 17139 ft | 330 kts | 351° |
| 2026-05-07 09:28 | 0.63166 | 103.97890 | 16872 ft | 327 kts | 351° |
| 2026-05-07 09:28 | 0.65395 | 103.97448 | 16611 ft | 326 kts | 351° |
| 2026-05-07 09:29 | 0.67616 | 103.97007 | 16352 ft | 325 kts | 351° |
| 2026-05-07 09:29 | 0.69835 | 103.96571 | 16094 ft | 324 kts | 352° |
| 2026-05-07 09:29 | 0.72067 | 103.96433 | 15841 ft | 321 kts | 6° |
| 2026-05-07 09:29 | 0.74254 | 103.96826 | 15592 ft | 318 kts | 16° |
| 2026-05-07 09:30 | 0.76364 | 103.97477 | 15330 ft | 317 kts | 20° |
| 2026-05-07 09:30 | 0.78420 | 103.98256 | 15073 ft | 315 kts | 23° |
| 2026-05-07 09:30 | 0.80436 | 103.99107 | 14820 ft | 314 kts | 24° |
| 2026-05-07 09:30 | 0.82432 | 103.99979 | 14570 ft | 313 kts | 25° |
| 2026-05-07 09:31 | 0.84425 | 104.00842 | 14324 ft | 312 kts | 24° |
| 2026-05-07 09:31 | 0.86419 | 104.01698 | 14077 ft | 311 kts | 24° |
| 2026-05-07 09:31 | 0.88403 | 104.02544 | 13833 ft | 310 kts | 24° |
| 2026-05-07 09:31 | 0.90384 | 104.03385 | 13589 ft | 309 kts | 24° |
| 2026-05-07 09:32 | 0.92358 | 104.04222 | 13347 ft | 308 kts | 24° |
| 2026-05-07 09:32 | 0.94327 | 104.05056 | 13105 ft | 307 kts | 24° |
| 2026-05-07 09:32 | 0.96294 | 104.05889 | 12863 ft | 306 kts | 24° |
| 2026-05-07 09:32 | 0.98254 | 104.06718 | 12623 ft | 305 kts | 24° |
| 2026-05-07 09:33 | 1.00204 | 104.07543 | 12381 ft | 304 kts | 24° |
| 2026-05-07 09:33 | 1.02151 | 104.08367 | 12143 ft | 304 kts | 24° |
| 2026-05-07 09:33 | 1.04095 | 104.09189 | 11904 ft | 302 kts | 24° |
| 2026-05-07 09:33 | 1.06026 | 104.10006 | 11666 ft | 301 kts | 24° |
| 2026-05-07 09:34 | 1.07959 | 104.10822 | 11406 ft | 301 kts | 24° |
| 2026-05-07 09:34 | 1.09871 | 104.11628 | 11173 ft | 296 kts | 24° |
| 2026-05-07 09:34 | 1.11784 | 104.12439 | 10975 ft | 303 kts | 24° |
| 2026-05-07 09:34 | 1.13766 | 104.13280 | 10546 ft | 318 kts | 23° |
| 2026-05-07 09:35 | 1.15795 | 104.14144 | 10161 ft | 315 kts | 24° |
| 2026-05-07 09:35 | 1.17791 | 104.14993 | 9692 ft | 309 kts | 23° |
| 2026-05-07 09:35 | 1.19736 | 104.15826 | 9129 ft | 311 kts | 24° |
| 2026-05-07 09:35 | 1.21737 | 104.16676 | 8878 ft | 312 kts | 24° |
| 2026-05-07 09:36 | 1.23767 | 104.17543 | 7697 ft | 321 kts | 23° |
| 2026-05-07 09:36 | 1.25848 | 104.18436 | 7387 ft | 329 kts | 23° |
| 2026-05-07 09:36 | 1.27980 | 104.19334 | 6384 ft | 331 kts | 23° |
| 2026-05-07 09:36 | 1.30099 | 104.20049 | 5992 ft | 310 kts | 12° |
| 2026-05-07 09:37 | 1.32172 | 104.20182 | 5799 ft | 292 kts | 359° |
| 2026-05-07 09:37 | 1.34145 | 104.20153 | 5638 ft | 275 kts | 2° |
| 2026-05-07 09:37 | 1.36027 | 104.20219 | 5174 ft | 267 kts | 0° |
| 2026-05-07 09:37 | 1.37842 | 104.20104 | 4878 ft | 255 kts | 355° |
| 2026-05-07 09:38 | 1.39574 | 104.19865 | 4728 ft | 249 kts | 352° |
| 2026-05-07 09:38 | 1.41280 | 104.19538 | 4420 ft | 249 kts | 349° |
| 2026-05-07 09:38 | 1.42963 | 104.19177 | 4169 ft | 242 kts | 348° |
| 2026-05-07 09:38 | 1.44575 | 104.18827 | 3882 ft | 232 kts | 348° |
| 2026-05-07 09:39 | 1.46171 | 104.18482 | 3816 ft | 247 kts | 348° |
| 2026-05-07 09:39 | 1.47837 | 104.18121 | 3782 ft | 237 kts | 348° |
| 2026-05-07 09:39 | 1.49445 | 104.17776 | 3923 ft | 241 kts | 348° |
| 2026-05-07 09:39 | 1.51138 | 104.17370 | 4153 ft | 247 kts | 345° |
| 2026-05-07 09:40 | 1.52668 | 104.16767 | 4332 ft | 233 kts | 335° |
| 2026-05-07 09:40 | 1.54067 | 104.15862 | 4543 ft | 247 kts | 323° |
| 2026-05-07 09:40 | 1.55398 | 104.14712 | 5100 ft | 257 kts | 319° |
| 2026-05-07 09:40 | 1.56761 | 104.13483 | 5522 ft | 276 kts | 318° |
| 2026-05-07 09:41 | 1.58063 | 104.12008 | 5054 ft | 289 kts | 302° |
| 2026-05-07 09:41 | 1.58637 | 104.10089 | 4463 ft | 290 kts | 274° |
| 2026-05-07 09:41 | 1.58475 | 104.08793 | 4430 ft | 278 kts | 255° |
| 2026-05-07 09:41 | 1.57518 | 104.07195 | 4558 ft | 270 kts | 227° |
| 2026-05-07 09:42 | 1.55967 | 104.06174 | 4196 ft | 270 kts | 202° |
| 2026-05-07 09:42 | 1.54121 | 104.05904 | 2963 ft | 271 kts | 177° |
| 2026-05-07 09:42 | 1.51733 | 104.06197 | 3006 ft | 248 kts | 180° |
| 2026-05-07 09:42 | 1.50633 | 104.06062 | 2520 ft | 237 kts | 191° |
| 2026-05-07 09:43 | 1.49264 | 104.05554 | 2658 ft | 190 kts | 202° |
| 2026-05-07 09:43 | 1.48224 | 104.04936 | 2521 ft | 157 kts | 208° |
| 2026-05-07 09:43 | 1.47338 | 104.04321 | 2271 ft | 155 kts | 214° |
| 2026-05-07 09:43 | 1.46507 | 104.03628 | 1972 ft | 156 kts | 217° |
| 2026-05-07 09:44 | 1.45690 | 104.02952 | 1829 ft | 151 kts | 217° |
| 2026-05-07 09:44 | 1.44873 | 104.02284 | 1584 ft | 150 kts | 216° |
| 2026-05-07 09:44 | 1.44042 | 104.01699 | 1432 ft | 145 kts | 207° |
| 2026-05-07 09:44 | 1.43120 | 104.01234 | 1244 ft | 149 kts | 204° |
| 2026-05-07 09:45 | 1.42184 | 104.00807 | 1016 ft | 148 kts | 201° |
| 2026-05-07 09:45 | 1.41246 | 104.00418 | 1001 ft | 145 kts | 199° |
| 2026-05-07 09:45 | 1.40300 | 104.00024 | 853 ft | 149 kts | 199° |
| 2026-05-07 09:45 | 1.39346 | 103.99631 | 595 ft | 148 kts | 200° |
| 2026-05-07 09:46 | 1.38396 | 103.99224 | 302 ft | 150 kts | 199° |
| 2026-05-07 09:46 | 1.37486 | 103.98836 | 99 ft | 130 kts | 195° |
| 2026-05-07 09:46 | 1.36750 | 103.98536 | 38 ft | 93 kts | 197° |
| 2026-05-07 09:46 | 1.36324 | 103.98363 | 36 ft | 42 kts | 205° |
| 2026-05-07 09:47 | 1.36109 | 103.98283 | 36 ft | 29 kts | 182° |
| 2026-05-07 09:47 | 1.35991 | 103.98289 | 36 ft | 9 kts | 173° |
| 2026-05-07 09:47 | 1.35951 | 103.98293 | 36 ft | 5 kts | 174° |
| 2026-05-07 09:47 | 1.35926 | 103.98295 | 36 ft | 3 kts | 174° |
| 2026-05-07 09:48 | 1.35908 | 103.98297 | 36 ft | 2 kts | 174° |
| 2026-05-07 09:48 | 1.35892 | 103.98299 | 36 ft | 3 kts | 174° |
| 2026-05-07 09:48 | 1.35828 | 103.98305 | 36 ft | 11 kts | 174° |
| 2026-05-07 09:48 | 1.35756 | 103.98304 | 36 ft | 10 kts | 194° |
| 2026-05-07 09:49 | 1.35693 | 103.98280 | 36 ft | 9 kts | 202° |
| 2026-05-07 09:49 | 1.35633 | 103.98256 | 36 ft | 9 kts | 203° |
| 2026-05-07 09:49 | 1.35577 | 103.98232 | 36 ft | 9 kts | 203° |
| 2026-05-07 09:49 | 1.35524 | 103.98209 | 36 ft | 8 kts | 203° |
| 2026-05-07 09:50 | 1.35474 | 103.98188 | 36 ft | 8 kts | 203° |
| 2026-05-07 09:50 | 1.35428 | 103.98169 | 36 ft | 7 kts | 203° |
| 2026-05-07 09:50 | 1.35383 | 103.98150 | 36 ft | 7 kts | 203° |
| 2026-05-07 09:50 | 1.35343 | 103.98133 | 36 ft | 6 kts | 203° |
| 2026-05-07 09:51 | 1.35305 | 103.98117 | 36 ft | 6 kts | 203° |
| 2026-05-07 09:51 | 1.35267 | 103.98101 | 36 ft | 6 kts | 203° |
| 2026-05-07 09:51 | 1.35233 | 103.98086 | 36 ft | 5 kts | 203° |
| 2026-05-07 09:51 | 1.35200 | 103.98073 | 36 ft | 5 kts | 203° |
| 2026-05-07 09:52 | 1.35140 | 103.98047 | 36 ft | 15 kts | 203° |
| 2026-05-07 09:52 | 1.35031 | 103.98002 | 36 ft | 17 kts | 202° |
| 2026-05-07 09:52 | 1.34924 | 103.97957 | 36 ft | 16 kts | 202° |
| 2026-05-07 09:52 | 1.34826 | 103.97915 | 36 ft | 11 kts | 203° |
| 2026-05-07 09:53 | 1.34757 | 103.97885 | 36 ft | 10 kts | 203° |
| 2026-05-07 09:53 | 1.34689 | 103.97870 | 36 ft | 10 kts | 172° |
| 2026-05-07 09:53 | 1.34640 | 103.97908 | 36 ft | 9 kts | 118° |
| 2026-05-07 09:53 | 1.34614 | 103.97966 | 36 ft | 9 kts | 113° |
| 2026-05-07 09:54 | 1.34591 | 103.98018 | 36 ft | 6 kts | 113° |
| 2026-05-07 09:54 | 1.34556 | 103.98033 | 36 ft | 6 kts | 194° |
| 2026-05-07 09:54 | 1.34517 | 103.98021 | 36 ft | 6 kts | 202° |
| 2026-05-07 09:54 | 1.34483 | 103.98006 | 36 ft | 5 kts | 203° |
| 2026-05-07 09:55 | 1.34476 | 103.98004 | 36 ft | 0 kts | 203° |